sensor_id;sensor_type;location;lat;lon;timestamp;pressure;altitude;pressure_sealevel;temperature;humidity
65376;BME280;51976;47.332;9.404;2023-04-21T00:00:00;92170.66;;;3.32;78.56
65376;BME280;51976;47.332;9.404;2023-04-21T00:02:25;92162.59;;;3.59;78.53
65376;BME280;51976;47.332;9.404;2023-04-21T00:04:52;92092.00;;;3.20;78.27
65376;BME280;51976;47.332;9.404;2023-04-21T00:07:18;92085.56;;;3.16;78.26
65376;BME280;51976;47.332;9.404;2023-04-21T00:09:44;92059.13;;;3.04;78.33
65376;BME280;51976;47.332;9.404;2023-04-21T00:12:09;92164.81;;;3.72;78.24
65376;BME280;51976;47.332;9.404;2023-04-21T00:14:35;92148.97;;;3.56;78.84
65376;BME280;51976;47.332;9.404;2023-04-21T00:17:00;92082.56;;;3.07;78.70
65376;BME280;51976;47.332;9.404;2023-04-21T00:19:26;92070.91;;;2.81;79.60
65376;BME280;51976;47.332;9.404;2023-04-21T00:21:53;92077.72;;;2.67;80.82
65376;BME280;51976;47.332;9.404;2023-04-21T00:24:23;92119.34;;;2.78;81.29
65376;BME280;51976;47.332;9.404;2023-04-21T00:26:48;92075.91;;;2.41;81.75
65376;BME280;51976;47.332;9.404;2023-04-21T00:29:14;92151.25;;;2.73;82.83
65376;BME280;51976;47.332;9.404;2023-04-21T00:31:39;92058.81;;;2.10;82.90
65376;BME280;51976;47.332;9.404;2023-04-21T00:34:04;92071.25;;;2.04;83.60
65376;BME280;51976;47.332;9.404;2023-04-21T00:36:30;92098.59;;;2.26;83.69
65376;BME280;51976;47.332;9.404;2023-04-21T00:38:56;92071.25;;;2.31;83.22
65376;BME280;51976;47.332;9.404;2023-04-21T00:41:21;92107.19;;;2.60;82.80
65376;BME280;51976;47.332;9.404;2023-04-21T00:44:00;92071.06;;;2.37;82.61
65376;BME280;51976;47.332;9.404;2023-04-21T00:46:26;92058.91;;;2.47;81.69
65376;BME280;51976;47.332;9.404;2023-04-21T00:48:51;92147.81;;;3.10;81.48
65376;BME280;51976;47.332;9.404;2023-04-21T00:51:17;92150.84;;;3.18;80.94
65376;BME280;51976;47.332;9.404;2023-04-21T00:53:43;92168.63;;;3.13;81.11
65376;BME280;51976;47.332;9.404;2023-04-21T00:56:09;92090.59;;;2.80;80.58
65376;BME280;51976;47.332;9.404;2023-04-21T00:58:35;92128.59;;;3.02;80.37
65376;BME280;51976;47.332;9.404;2023-04-21T01:01:03;92152.00;;;3.32;80.17
65376;BME280;51976;47.332;9.404;2023-04-21T01:03:29;92075.88;;;2.99;79.65
65376;BME280;51976;47.332;9.404;2023-04-21T01:05:55;92134.25;;;3.11;79.94
65376;BME280;51976;47.332;9.404;2023-04-21T01:08:21;92072.47;;;2.77;80.44
65376;BME280;51976;47.332;9.404;2023-04-21T01:10:49;92108.63;;;3.00;80.29
65376;BME280;51976;47.332;9.404;2023-04-21T01:13:18;92152.53;;;2.97;81.09
65376;BME280;51976;47.332;9.404;2023-04-21T01:15:44;92135.84;;;2.80;81.55
65376;BME280;51976;47.332;9.404;2023-04-21T01:18:10;92126.31;;;2.84;81.28
65376;BME280;51976;47.332;9.404;2023-04-21T01:20:35;92080.09;;;2.63;81.05
65376;BME280;51976;47.332;9.404;2023-04-21T01:23:01;92126.72;;;2.98;81.19
65376;BME280;51976;47.332;9.404;2023-04-21T01:25:26;92131.06;;;3.09;80.52
65376;BME280;51976;47.332;9.404;2023-04-21T01:27:53;92113.00;;;3.16;80.24
65376;BME280;51976;47.332;9.404;2023-04-21T01:30:18;92085.38;;;2.90;80.11
65376;BME280;51976;47.332;9.404;2023-04-21T01:32:43;92059.69;;;2.74;79.89
65376;BME280;51976;47.332;9.404;2023-04-21T01:35:09;92067.00;;;2.89;79.86
65376;BME280;51976;47.332;9.404;2023-04-21T01:37:35;92080.06;;;2.90;80.28
65376;BME280;51976;47.332;9.404;2023-04-21T01:40:03;92119.00;;;3.01;80.42
65376;BME280;51976;47.332;9.404;2023-04-21T01:42:30;92094.31;;;2.79;81.14
65376;BME280;51976;47.332;9.404;2023-04-21T01:44:56;92112.59;;;2.97;80.98
65376;BME280;51976;47.332;9.404;2023-04-21T01:47:22;92118.00;;;3.08;80.27
65376;BME280;51976;47.332;9.404;2023-04-21T01:49:48;92126.38;;;3.21;80.08
65376;BME280;51976;47.332;9.404;2023-04-21T01:52:14;92087.91;;;3.07;79.76
65376;BME280;51976;47.332;9.404;2023-04-21T01:54:45;92097.84;;;3.17;79.54
65376;BME280;51976;47.332;9.404;2023-04-21T01:57:14;92102.94;;;3.23;79.57
65376;BME280;51976;47.332;9.404;2023-04-21T01:59:40;92082.50;;;2.97;80.05
65376;BME280;51976;47.332;9.404;2023-04-21T02:02:06;92087.72;;;3.19;80.34
65376;BME280;51976;47.332;9.404;2023-04-21T02:04:32;92091.34;;;3.08;79.85
65376;BME280;51976;47.332;9.404;2023-04-21T02:06:57;92076.13;;;2.98;80.26
65376;BME280;51976;47.332;9.404;2023-04-21T02:09:23;92140.59;;;3.37;80.23
65376;BME280;51976;47.332;9.404;2023-04-21T02:11:48;92059.78;;;2.84;80.53
65376;BME280;51976;47.332;9.404;2023-04-21T02:14:13;92055.00;;;2.86;80.40
65376;BME280;51976;47.332;9.404;2023-04-21T02:16:39;92058.03;;;3.00;80.32
65376;BME280;51976;47.332;9.404;2023-04-21T02:19:04;92121.88;;;3.27;80.06
65376;BME280;51976;47.332;9.404;2023-04-21T02:21:30;92070.28;;;3.01;80.21
65376;BME280;51976;47.332;9.404;2023-04-21T02:23:56;92065.84;;;3.12;80.08
65376;BME280;51976;47.332;9.404;2023-04-21T02:26:22;92135.94;;;3.59;79.62
65376;BME280;51976;47.332;9.404;2023-04-21T02:28:48;92130.06;;;3.52;79.79
65376;BME280;51976;47.332;9.404;2023-04-21T02:31:14;92161.78;;;3.54;79.92
65376;BME280;51976;47.332;9.404;2023-04-21T02:33:40;92147.59;;;3.48;79.85
65376;BME280;51976;47.332;9.404;2023-04-21T02:36:06;92080.72;;;3.08;79.63
65376;BME280;51976;47.332;9.404;2023-04-21T02:38:32;92153.50;;;3.50;78.97
65376;BME280;51976;47.332;9.404;2023-04-21T02:40:57;92152.69;;;3.50;79.13
65376;BME280;51976;47.332;9.404;2023-04-21T02:43:23;92086.00;;;3.02;79.01
65376;BME280;51976;47.332;9.404;2023-04-21T02:45:49;92077.91;;;2.87;78.94
65376;BME280;51976;47.332;9.404;2023-04-21T02:48:14;92156.50;;;3.27;79.29
65376;BME280;51976;47.332;9.404;2023-04-21T02:50:47;92132.53;;;2.95;79.25
65376;BME280;51976;47.332;9.404;2023-04-21T02:53:13;92133.66;;;2.99;79.05
65376;BME280;51976;47.332;9.404;2023-04-21T02:55:39;92143.44;;;3.25;79.08
65376;BME280;51976;47.332;9.404;2023-04-21T02:58:05;92105.22;;;3.10;78.70
65376;BME280;51976;47.332;9.404;2023-04-21T03:00:33;92154.41;;;3.34;78.87
65376;BME280;51976;47.332;9.404;2023-04-21T03:02:59;92166.63;;;3.25;79.50
65376;BME280;51976;47.332;9.404;2023-04-21T03:05:24;92131.44;;;2.91;80.41
65376;BME280;51976;47.332;9.404;2023-04-21T03:07:50;92154.91;;;2.94;81.50
65376;BME280;51976;47.332;9.404;2023-04-21T03:10:15;92129.97;;;2.73;81.12
65376;BME280;51976;47.332;9.404;2023-04-21T03:12:42;92143.38;;;2.88;81.61
65376;BME280;51976;47.332;9.404;2023-04-21T03:15:07;92157.44;;;2.84;81.75
65376;BME280;51976;47.332;9.404;2023-04-21T03:17:33;92153.03;;;2.94;81.66
65376;BME280;51976;47.332;9.404;2023-04-21T03:19:58;92192.34;;;3.46;80.93
65376;BME280;51976;47.332;9.404;2023-04-21T03:22:24;92185.75;;;3.54;81.02
65376;BME280;51976;47.332;9.404;2023-04-21T03:24:50;92116.56;;;2.95;81.00
65376;BME280;51976;47.332;9.404;2023-04-21T03:27:16;92185.97;;;3.47;81.12
65376;BME280;51976;47.332;9.404;2023-04-21T03:29:41;92163.47;;;3.33;81.24
65376;BME280;51976;47.332;9.404;2023-04-21T03:32:09;92191.84;;;3.49;81.17
65376;BME280;51976;47.332;9.404;2023-04-21T03:34:35;92141.34;;;3.27;80.78
65376;BME280;51976;47.332;9.404;2023-04-21T03:37:00;92167.22;;;3.37;80.51
65376;BME280;51976;47.332;9.404;2023-04-21T03:39:26;92164.75;;;3.25;81.10
65376;BME280;51976;47.332;9.404;2023-04-21T03:41:51;92197.50;;;3.58;80.81
65376;BME280;51976;47.332;9.404;2023-04-21T03:44:17;92201.63;;;3.76;80.34
65376;BME280;51976;47.332;9.404;2023-04-21T03:46:42;92174.91;;;3.65;80.06
65376;BME280;51976;47.332;9.404;2023-04-21T03:49:07;92172.75;;;3.62;80.08
65376;BME280;51976;47.332;9.404;2023-04-21T03:51:33;92138.00;;;3.47;79.61
65376;BME280;51976;47.332;9.404;2023-04-21T03:53:58;92105.44;;;3.40;79.65
65376;BME280;51976;47.332;9.404;2023-04-21T03:56:23;92107.59;;;3.43;79.64
65376;BME280;51976;47.332;9.404;2023-04-21T03:58:49;92086.22;;;3.33;79.58
65376;BME280;51976;47.332;9.404;2023-04-21T04:01:14;92147.09;;;3.56;79.72
65376;BME280;51976;47.332;9.404;2023-04-21T04:03:40;92149.75;;;3.51;80.35
65376;BME280;51976;47.332;9.404;2023-04-21T04:06:06;92098.97;;;3.26;80.59
65376;BME280;51976;47.332;9.404;2023-04-21T04:08:31;92158.34;;;3.63;80.70
65376;BME280;51976;47.332;9.404;2023-04-21T04:10:57;92119.31;;;3.42;81.08
65376;BME280;51976;47.332;9.404;2023-04-21T04:13:23;92164.28;;;3.70;81.44
65376;BME280;51976;47.332;9.404;2023-04-21T04:15:50;92099.03;;;3.36;81.03
65376;BME280;51976;47.332;9.404;2023-04-21T04:18:16;92099.78;;;3.26;81.06
65376;BME280;51976;47.332;9.404;2023-04-21T04:20:41;92125.53;;;3.53;81.09
65376;BME280;51976;47.332;9.404;2023-04-21T04:23:06;92143.75;;;3.71;81.05
65376;BME280;51976;47.332;9.404;2023-04-21T04:25:32;92116.47;;;3.54;81.06
65376;BME280;51976;47.332;9.404;2023-04-21T04:27:58;92153.69;;;3.81;81.26
65376;BME280;51976;47.332;9.404;2023-04-21T04:30:26;92120.81;;;3.70;81.06
65376;BME280;51976;47.332;9.404;2023-04-21T04:32:52;92155.94;;;4.04;80.81
65376;BME280;51976;47.332;9.404;2023-04-21T04:35:18;92148.38;;;3.91;81.18
65376;BME280;51976;47.332;9.404;2023-04-21T04:37:44;92136.69;;;3.97;81.07
65376;BME280;51976;47.332;9.404;2023-04-21T04:40:10;92088.88;;;3.75;80.47
65376;BME280;51976;47.332;9.404;2023-04-21T04:42:41;92132.25;;;4.18;80.48
65376;BME280;51976;47.332;9.404;2023-04-21T04:45:07;92080.66;;;3.92;80.37
65376;BME280;51976;47.332;9.404;2023-04-21T04:47:34;92068.63;;;3.79;80.44
65376;BME280;51976;47.332;9.404;2023-04-21T04:49:59;92108.78;;;4.20;80.43
65376;BME280;51976;47.332;9.404;2023-04-21T04:52:25;92101.50;;;4.00;81.06
65376;BME280;51976;47.332;9.404;2023-04-21T04:54:50;92138.16;;;4.25;81.02
65376;BME280;51976;47.332;9.404;2023-04-21T04:57:18;92130.97;;;4.30;81.15
65376;BME280;51976;47.332;9.404;2023-04-21T04:59:44;92052.38;;;3.81;80.93
65376;BME280;51976;47.332;9.404;2023-04-21T05:02:10;92065.69;;;3.76;81.23
65376;BME280;51976;47.332;9.404;2023-04-21T05:04:36;92105.88;;;4.26;80.82
65376;BME280;51976;47.332;9.404;2023-04-21T05:07:02;92076.44;;;4.01;80.63
65376;BME280;51976;47.332;9.404;2023-04-21T05:09:27;92149.69;;;4.35;81.16
65376;BME280;51976;47.332;9.404;2023-04-21T05:11:52;92145.94;;;4.31;81.21
65376;BME280;51976;47.332;9.404;2023-04-21T05:14:18;92130.19;;;4.30;81.26
65376;BME280;51976;47.332;9.404;2023-04-21T05:16:44;92063.56;;;3.78;81.50
65376;BME280;51976;47.332;9.404;2023-04-21T05:19:09;92100.75;;;4.04;81.43
65376;BME280;51976;47.332;9.404;2023-04-21T05:21:34;92105.00;;;4.11;80.89
65376;BME280;51976;47.332;9.404;2023-04-21T05:24:00;92084.75;;;4.10;80.99
65376;BME280;51976;47.332;9.404;2023-04-21T05:26:26;92052.44;;;3.96;80.50
65376;BME280;51976;47.332;9.404;2023-04-21T05:28:53;92083.72;;;4.21;80.56
65376;BME280;51976;47.332;9.404;2023-04-21T05:31:18;92112.31;;;4.40;80.82
65376;BME280;51976;47.332;9.404;2023-04-21T05:33:44;92081.28;;;4.14;81.16
65376;BME280;51976;47.332;9.404;2023-04-21T05:36:09;92098.91;;;4.20;81.60
65376;BME280;51976;47.332;9.404;2023-04-21T05:38:36;92125.97;;;4.49;81.58
65376;BME280;51976;47.332;9.404;2023-04-21T05:41:02;92128.34;;;4.46;81.76
65376;BME280;51976;47.332;9.404;2023-04-21T05:43:29;92115.00;;;4.40;81.63
65376;BME280;51976;47.332;9.404;2023-04-21T05:46:00;92122.44;;;4.38;81.28
65376;BME280;51976;47.332;9.404;2023-04-21T05:48:26;92130.53;;;4.54;80.73
65376;BME280;51976;47.332;9.404;2023-04-21T05:50:53;92039.63;;;3.98;80.34
65376;BME280;51976;47.332;9.404;2023-04-21T05:53:18;92115.56;;;4.53;80.30
65376;BME280;51976;47.332;9.404;2023-04-21T05:55:47;92086.94;;;4.23;80.66
65376;BME280;51976;47.332;9.404;2023-04-21T05:58:12;92074.59;;;4.12;80.91
65376;BME280;51976;47.332;9.404;2023-04-21T06:00:37;92068.75;;;4.10;81.41
65376;BME280;51976;47.332;9.404;2023-04-21T06:03:03;92052.22;;;4.13;80.88
65376;BME280;51976;47.332;9.404;2023-04-21T06:05:28;92043.94;;;4.09;81.19
65376;BME280;51976;47.332;9.404;2023-04-21T06:07:54;92044.75;;;4.20;80.87
65376;BME280;51976;47.332;9.404;2023-04-21T06:10:19;92083.00;;;4.51;81.47
65376;BME280;51976;47.332;9.404;2023-04-21T06:12:45;92041.56;;;4.23;82.06
65376;BME280;51976;47.332;9.404;2023-04-21T06:15:10;92019.19;;;4.29;81.62
65376;BME280;51976;47.332;9.404;2023-04-21T06:17:36;92098.31;;;4.91;81.03
65376;BME280;51976;47.332;9.404;2023-04-21T06:20:01;92066.78;;;4.83;80.84
65376;BME280;51976;47.332;9.404;2023-04-21T06:22:28;92018.41;;;4.43;81.27
65376;BME280;51976;47.332;9.404;2023-04-21T06:24:53;92026.97;;;4.56;81.20
65376;BME280;51976;47.332;9.404;2023-04-21T06:27:23;92054.22;;;4.98;80.70
65376;BME280;51976;47.332;9.404;2023-04-21T06:29:54;92039.25;;;4.97;80.30
65376;BME280;51976;47.332;9.404;2023-04-21T06:32:22;91986.88;;;5.22;77.43
65376;BME280;51976;47.332;9.404;2023-04-21T06:34:47;92061.59;;;5.93;76.89
65376;BME280;51976;47.332;9.404;2023-04-21T06:37:13;92041.31;;;5.66;77.67
65376;BME280;51976;47.332;9.404;2023-04-21T06:39:38;91997.50;;;5.52;77.78
65376;BME280;51976;47.332;9.404;2023-04-21T06:42:03;92064.72;;;6.15;77.42
65376;BME280;51976;47.332;9.404;2023-04-21T06:44:29;92017.63;;;6.09;74.31
65376;BME280;51976;47.332;9.404;2023-04-21T06:46:56;92037.28;;;6.38;74.12
65376;BME280;51976;47.332;9.404;2023-04-21T06:49:21;92061.75;;;6.66;73.61
65376;BME280;51976;47.332;9.404;2023-04-21T06:51:47;91996.69;;;6.26;73.44
65376;BME280;51976;47.332;9.404;2023-04-21T06:54:12;92011.28;;;6.44;73.33
65376;BME280;51976;47.332;9.404;2023-04-21T06:56:38;92002.22;;;6.40;73.56
65376;BME280;51976;47.332;9.404;2023-04-21T06:59:04;92036.81;;;6.75;72.01
65376;BME280;51976;47.332;9.404;2023-04-21T07:01:29;91992.22;;;6.90;72.15
65376;BME280;51976;47.332;9.404;2023-04-21T07:03:55;92020.03;;;7.28;70.23
65376;BME280;51976;47.332;9.404;2023-04-21T07:06:20;91997.22;;;7.01;71.46
65376;BME280;51976;47.332;9.404;2023-04-21T07:08:45;92025.53;;;6.78;73.05
65376;BME280;51976;47.332;9.404;2023-04-21T07:11:11;92053.28;;;6.93;74.52
65376;BME280;51976;47.332;9.404;2023-04-21T07:13:36;91997.28;;;6.57;73.40
65376;BME280;51976;47.332;9.404;2023-04-21T07:16:02;92052.31;;;7.12;73.29
65376;BME280;51976;47.332;9.404;2023-04-21T07:18:27;91988.66;;;6.65;74.68
65376;BME280;51976;47.332;9.404;2023-04-21T07:20:52;92019.75;;;6.61;73.92
65376;BME280;51976;47.332;9.404;2023-04-21T07:23:18;92065.53;;;6.60;75.45
65376;BME280;51976;47.332;9.404;2023-04-21T07:25:44;92030.75;;;6.05;77.58
65376;BME280;51976;47.332;9.404;2023-04-21T07:28:09;92069.78;;;6.71;76.53
65376;BME280;51976;47.332;9.404;2023-04-21T07:30:35;92011.41;;;6.29;76.46
65376;BME280;51976;47.332;9.404;2023-04-21T07:33:01;92051.03;;;6.71;76.34
65376;BME280;51976;47.332;9.404;2023-04-21T07:35:26;91999.13;;;6.62;75.89
65376;BME280;51976;47.332;9.404;2023-04-21T07:37:51;92051.38;;;7.32;74.11
65376;BME280;51976;47.332;9.404;2023-04-21T07:40:17;92056.66;;;7.08;75.19
65376;BME280;51976;47.332;9.404;2023-04-21T07:42:42;92071.00;;;7.23;75.74
65376;BME280;51976;47.332;9.404;2023-04-21T07:45:08;92026.94;;;7.05;75.12
65376;BME280;51976;47.332;9.404;2023-04-21T07:47:34;92087.97;;;7.47;75.20
65376;BME280;51976;47.332;9.404;2023-04-21T07:49:59;91981.66;;;7.03;75.16
65376;BME280;51976;47.332;9.404;2023-04-21T07:52:25;92069.06;;;7.91;74.14
65376;BME280;51976;47.332;9.404;2023-04-21T07:54:51;92013.28;;;7.64;74.27
65376;BME280;51976;47.332;9.404;2023-04-21T07:57:16;92049.09;;;7.73;74.02
65376;BME280;51976;47.332;9.404;2023-04-21T07:59:42;92070.28;;;7.75;75.18
65376;BME280;51976;47.332;9.404;2023-04-21T08:02:07;92037.63;;;7.68;74.82
65376;BME280;51976;47.332;9.404;2023-04-21T08:04:33;92076.31;;;7.91;75.12
65376;BME280;51976;47.332;9.404;2023-04-21T08:06:59;92012.59;;;7.48;74.89
65376;BME280;51976;47.332;9.404;2023-04-21T08:09:25;92044.13;;;7.62;75.94
65376;BME280;51976;47.332;9.404;2023-04-21T08:11:50;92018.22;;;7.76;74.75
65376;BME280;51976;47.332;9.404;2023-04-21T08:14:16;92031.53;;;8.10;72.68
65376;BME280;51976;47.332;9.404;2023-04-21T08:16:41;92087.19;;;8.23;72.29
65376;BME280;51976;47.332;9.404;2023-04-21T08:19:08;92008.53;;;7.80;73.30
65376;BME280;51976;47.332;9.404;2023-04-21T08:21:34;92063.94;;;8.42;73.32
65376;BME280;51976;47.332;9.404;2023-04-21T08:23:59;92013.53;;;8.10;72.70
65376;BME280;51976;47.332;9.404;2023-04-21T08:26:25;92006.34;;;7.58;75.60
65376;BME280;51976;47.332;9.404;2023-04-21T08:28:51;92061.69;;;8.02;75.18
65376;BME280;51976;47.332;9.404;2023-04-21T08:31:18;92059.63;;;8.18;75.82
65376;BME280;51976;47.332;9.404;2023-04-21T08:33:44;92052.72;;;8.35;74.61
65376;BME280;51976;47.332;9.404;2023-04-21T08:36:09;92048.91;;;8.41;74.07
65376;BME280;51976;47.332;9.404;2023-04-21T08:38:41;92044.72;;;8.92;73.22
65376;BME280;51976;47.332;9.404;2023-04-21T08:41:07;91990.94;;;7.93;74.83
65376;BME280;51976;47.332;9.404;2023-04-21T08:43:33;92069.25;;;8.66;75.16
65376;BME280;51976;47.332;9.404;2023-04-21T08:46:02;92028.75;;;8.63;75.36
65376;BME280;51976;47.332;9.404;2023-04-21T08:48:33;92016.97;;;8.96;73.85
65376;BME280;51976;47.332;9.404;2023-04-21T08:51:01;92049.00;;;8.74;74.62
65376;BME280;51976;47.332;9.404;2023-04-21T08:53:26;92064.25;;;8.97;74.89
65376;BME280;51976;47.332;9.404;2023-04-21T08:55:51;92036.50;;;9.02;74.58
65376;BME280;51976;47.332;9.404;2023-04-21T08:58:19;92024.75;;;8.98;72.69
65376;BME280;51976;47.332;9.404;2023-04-21T09:00:47;92041.81;;;8.88;74.06
65376;BME280;51976;47.332;9.404;2023-04-21T09:03:20;92073.25;;;9.06;73.46
65376;BME280;51976;47.332;9.404;2023-04-21T09:05:57;92044.47;;;9.26;73.16
65376;BME280;51976;47.332;9.404;2023-04-21T09:08:23;92061.81;;;9.52;72.93
65376;BME280;51976;47.332;9.404;2023-04-21T09:10:50;92023.53;;;9.23;71.15
65376;BME280;51976;47.332;9.404;2023-04-21T09:13:17;91998.63;;;9.17;71.59
65376;BME280;51976;47.332;9.404;2023-04-21T09:15:48;91989.06;;;8.92;71.83
65376;BME280;51976;47.332;9.404;2023-04-21T09:18:21;91995.00;;;9.40;71.07
65376;BME280;51976;47.332;9.404;2023-04-21T09:20:49;92017.63;;;10.40;69.02
65376;BME280;51976;47.332;9.404;2023-04-21T09:23:15;92015.34;;;10.20;68.58
65376;BME280;51976;47.332;9.404;2023-04-21T09:25:43;92027.56;;;11.17;65.20
65376;BME280;51976;47.332;9.404;2023-04-21T09:28:11;92011.69;;;10.79;65.67
65376;BME280;51976;47.332;9.404;2023-04-21T09:30:38;91992.56;;;10.54;66.70
65376;BME280;51976;47.332;9.404;2023-04-21T09:33:04;92054.06;;;10.51;68.08
65376;BME280;51976;47.332;9.404;2023-04-21T09:35:33;92022.63;;;10.20;66.11
65376;BME280;51976;47.332;9.404;2023-04-21T09:38:00;92015.53;;;10.51;65.56
65376;BME280;51976;47.332;9.404;2023-04-21T09:40:28;92034.91;;;10.39;67.61
65376;BME280;51976;47.332;9.404;2023-04-21T09:42:54;92012.09;;;11.09;64.49
65376;BME280;51976;47.332;9.404;2023-04-21T09:45:19;92035.78;;;10.98;65.05
65376;BME280;51976;47.332;9.404;2023-04-21T09:47:49;92030.75;;;11.64;49.83
65376;BME280;51976;47.332;9.404;2023-04-21T09:50:16;92053.22;;;12.35;48.69
65376;BME280;51976;47.332;9.404;2023-04-21T09:52:42;92023.75;;;12.56;45.85
65376;BME280;51976;47.332;9.404;2023-04-21T09:55:12;91980.09;;;12.40;43.73
65376;BME280;51976;47.332;9.404;2023-04-21T09:57:40;92023.63;;;12.78;44.40
65376;BME280;51976;47.332;9.404;2023-04-21T10:00:08;91984.75;;;12.48;44.08
65376;BME280;51976;47.332;9.404;2023-04-21T10:02:37;91984.28;;;12.54;43.74
65376;BME280;51976;47.332;9.404;2023-04-21T10:05:07;92008.88;;;13.18;42.75
65376;BME280;51976;47.332;9.404;2023-04-21T10:07:33;92026.09;;;13.57;42.20
65376;BME280;51976;47.332;9.404;2023-04-21T10:09:59;92011.91;;;13.60;42.55
65376;BME280;51976;47.332;9.404;2023-04-21T10:12:26;91979.13;;;13.36;45.93
65376;BME280;51976;47.332;9.404;2023-04-21T10:14:53;92016.31;;;13.91;42.86
65376;BME280;51976;47.332;9.404;2023-04-21T10:17:22;92031.00;;;14.36;41.87
65376;BME280;51976;47.332;9.404;2023-04-21T10:19:53;92015.22;;;14.30;40.35
65376;BME280;51976;47.332;9.404;2023-04-21T10:22:28;92042.75;;;14.57;40.65
65376;BME280;51976;47.332;9.404;2023-04-21T10:24:55;91968.19;;;14.26;40.52
65376;BME280;51976;47.332;9.404;2023-04-21T10:27:38;91985.50;;;14.50;40.53
65376;BME280;51976;47.332;9.404;2023-04-21T10:30:22;92029.84;;;14.84;38.89
65376;BME280;51976;47.332;9.404;2023-04-21T10:32:48;92038.03;;;14.75;39.88
65376;BME280;51976;47.332;9.404;2023-04-21T10:35:56;92023.28;;;14.85;40.61
65376;BME280;51976;47.332;9.404;2023-04-21T10:38:33;91963.00;;;14.50;39.58
65376;BME280;51976;47.332;9.404;2023-04-21T10:41:24;92037.31;;;15.16;38.14
65376;BME280;51976;47.332;9.404;2023-04-21T10:43:51;91962.69;;;14.51;39.14
65376;BME280;51976;47.332;9.404;2023-04-21T10:46:37;92006.69;;;14.86;39.12
65376;BME280;51976;47.332;9.404;2023-04-21T10:49:07;91985.56;;;14.71;38.48
65376;BME280;51976;47.332;9.404;2023-04-21T10:52:01;92022.75;;;15.00;39.05
65376;BME280;51976;47.332;9.404;2023-04-21T10:54:43;91959.78;;;14.56;38.48
65376;BME280;51976;47.332;9.404;2023-04-21T10:57:30;92009.78;;;14.76;37.86
65376;BME280;51976;47.332;9.404;2023-04-21T10:59:56;91984.03;;;14.82;37.76
65376;BME280;51976;47.332;9.404;2023-04-21T11:02:25;91956.53;;;14.72;37.36
65376;BME280;51976;47.332;9.404;2023-04-21T11:05:16;92038.22;;;15.00;37.54
65376;BME280;51976;47.332;9.404;2023-04-21T11:07:42;92021.72;;;15.05;38.87
65376;BME280;51976;47.332;9.404;2023-04-21T11:10:07;91974.91;;;14.87;39.11
65376;BME280;51976;47.332;9.404;2023-04-21T11:12:38;91941.28;;;14.79;38.39
65376;BME280;51976;47.332;9.404;2023-04-21T11:15:08;91993.81;;;15.04;39.08
65376;BME280;51976;47.332;9.404;2023-04-21T11:17:35;91982.69;;;14.97;37.71
65376;BME280;51976;47.332;9.404;2023-04-21T11:20:02;91955.94;;;14.87;38.36
65376;BME280;51976;47.332;9.404;2023-04-21T11:22:28;92028.03;;;15.17;38.10
65376;BME280;51976;47.332;9.404;2023-04-21T11:24:56;91983.88;;;15.08;37.64
65376;BME280;51976;47.332;9.404;2023-04-21T11:27:24;91996.78;;;15.11;38.39
65376;BME280;51976;47.332;9.404;2023-04-21T11:29:50;91991.16;;;15.16;37.68
65376;BME280;51976;47.332;9.404;2023-04-21T11:32:16;92009.22;;;15.33;38.34
65376;BME280;51976;47.332;9.404;2023-04-21T11:34:42;92023.81;;;15.49;38.04
65376;BME280;51976;47.332;9.404;2023-04-21T11:37:15;91982.34;;;15.19;37.88
65376;BME280;51976;47.332;9.404;2023-04-21T11:39:41;91959.19;;;15.22;37.26
65376;BME280;51976;47.332;9.404;2023-04-21T11:42:08;91988.38;;;15.25;37.05
65376;BME280;51976;47.332;9.404;2023-04-21T11:44:39;91994.47;;;15.43;37.31
65376;BME280;51976;47.332;9.404;2023-04-21T11:47:18;91982.47;;;15.44;37.95
65376;BME280;51976;47.332;9.404;2023-04-21T11:49:46;92027.59;;;15.78;37.19
65376;BME280;51976;47.332;9.404;2023-04-21T11:52:29;92040.66;;;15.84;36.73
65376;BME280;51976;47.332;9.404;2023-04-21T11:55:04;91989.97;;;15.68;37.55
65376;BME280;51976;47.332;9.404;2023-04-21T11:57:31;91988.91;;;15.60;37.79
65376;BME280;51976;47.332;9.404;2023-04-21T11:59:58;92018.28;;;16.00;37.22
65376;BME280;51976;47.332;9.404;2023-04-21T12:02:31;91933.56;;;15.32;36.99
65376;BME280;51976;47.332;9.404;2023-04-21T12:05:03;92020.72;;;15.93;37.04
65376;BME280;51976;47.332;9.404;2023-04-21T12:07:36;91978.16;;;15.64;37.37
65376;BME280;51976;47.332;9.404;2023-04-21T12:10:09;91992.41;;;15.81;37.91
65376;BME280;51976;47.332;9.404;2023-04-21T12:12:39;92019.00;;;15.88;37.64
65376;BME280;51976;47.332;9.404;2023-04-21T12:15:06;91975.78;;;15.62;37.96
65376;BME280;51976;47.332;9.404;2023-04-21T12:17:44;92003.50;;;15.88;36.81
65376;BME280;51976;47.332;9.404;2023-04-21T12:20:10;92049.72;;;16.21;37.15
65376;BME280;51976;47.332;9.404;2023-04-21T12:22:36;91978.56;;;15.74;37.15
65376;BME280;51976;47.332;9.404;2023-04-21T12:25:01;92005.75;;;15.86;36.49
65376;BME280;51976;47.332;9.404;2023-04-21T12:27:27;92014.38;;;15.88;36.93
65376;BME280;51976;47.332;9.404;2023-04-21T12:29:53;92004.69;;;16.00;36.09
65376;BME280;51976;47.332;9.404;2023-04-21T12:32:18;92044.09;;;16.39;36.19
65376;BME280;51976;47.332;9.404;2023-04-21T12:34:44;92014.81;;;16.23;36.45
65376;BME280;51976;47.332;9.404;2023-04-21T12:37:10;92040.00;;;16.33;36.41
65376;BME280;51976;47.332;9.404;2023-04-21T12:39:35;92033.72;;;16.08;36.50
65376;BME280;51976;47.332;9.404;2023-04-21T12:42:01;91993.53;;;15.80;36.40
65376;BME280;51976;47.332;9.404;2023-04-21T12:44:26;92000.78;;;15.88;36.63
65376;BME280;51976;47.332;9.404;2023-04-21T12:46:52;92021.03;;;16.12;37.68
65376;BME280;51976;47.332;9.404;2023-04-21T12:49:18;91998.63;;;15.82;36.48
65376;BME280;51976;47.332;9.404;2023-04-21T12:51:44;91986.59;;;15.71;37.15
65376;BME280;51976;47.332;9.404;2023-04-21T12:54:10;92009.66;;;15.98;36.99
65376;BME280;51976;47.332;9.404;2023-04-21T12:56:40;92053.19;;;16.10;36.61
65376;BME280;51976;47.332;9.404;2023-04-21T12:59:06;92039.81;;;16.05;36.79
65376;BME280;51976;47.332;9.404;2023-04-21T13:01:32;92066.34;;;16.20;36.98
65376;BME280;51976;47.332;9.404;2023-04-21T13:03:58;92033.72;;;16.08;36.73
65376;BME280;51976;47.332;9.404;2023-04-21T13:06:23;91994.13;;;15.86;36.46